Time;durP1;ratioP1;P1;durP2;ratioP2;P2;SDS_P1;SDS_P2;PMS_P1;PMS_P2;Temp;Humidity;BMP_temperature;BMP_pressure;BME280_temperature;BME280_humidity;BME280_pressure;Samples;Min_cycle;Max_cycle;Signal;HPM_P1;HPM_P2
2022/01/25 00:31:10;;;;;;;7.67;1.90;;;24.80;64.10;;;;;;5028089;28;20234;-73
2022/01/25 00:33:54;;;;;;;8.03;2.07;;;24.80;63.90;;;;;;5036765;28;20180;-74
2022/01/25 00:36:24;;;;;;;8.40;1.87;;;24.90;64.10;;;;;;5030784;28;20531;-73
2022/01/25 00:38:54;;;;;;;8.50;2.00;;;24.90;63.60;;;;;;5035948;28;20231;-75
2022/01/25 00:41:26;;;;;;;7.03;1.77;;;25.00;63.40;;;;;;5030609;28;20189;-71
2022/01/25 00:43:54;;;;;;;8.50;1.60;;;24.90;63.40;;;;;;5035639;28;20200;-72
2022/01/25 00:46:26;;;;;;;6.73;2.00;;;24.80;63.30;;;;;;5030397;28;20243;-73
2022/01/25 00:48:59;;;;;;;7.20;1.70;;;24.90;63.60;;;;;;5035894;28;20181;-75
2022/01/25 00:54:04;;;;;;;10.37;1.77;;;25.10;63.10;;;;;;5035697;28;20211;-74
2022/01/25 00:56:34;;;;;;;6.30;1.80;;;25.00;62.50;;;;;;5035495;28;20188;-71
2022/01/25 00:59:07;;;;;;;18.17;1.90;;;24.80;63.30;;;;;;5035972;28;20695;-73
2022/01/25 01:01:37;;;;;;;10.13;2.23;;;24.70;64.00;;;;;;5037210;28;20187;-73
2022/01/25 01:04:06;;;;;;;6.57;1.53;;;24.70;64.40;;;;;;5038478;28;20215;-74
2022/01/25 01:06:35;;;;;;;9.83;2.53;;;24.60;65.20;;;;;;5037390;28;20274;-74
2022/01/25 01:09:02;;;;;;;6.57;1.80;;;24.60;65.90;;;;;;5029841;28;20196;-72
2022/01/25 01:11:41;;;;;;;10.43;1.70;;;24.50;65.60;;;;;;5033684;28;20188;-75
2022/01/25 01:33:20;;;;;;;10.07;2.17;;;25.60;61.60;;;;;;5041343;28;20173;-73
2022/01/25 01:46:28;;;;;;;10.33;2.30;;;26.30;59.20;;;;;;5032702;28;20290;-73
2022/01/25 01:49:01;;;;;;;5.60;1.87;;;26.40;59.20;;;;;;5032430;28;20506;-76
2022/01/25 01:51:35;;;;;;;7.47;1.70;;;26.60;58.40;;;;;;5027837;28;20666;-73
2022/01/25 01:54:11;;;;;;;8.60;2.13;;;26.90;57.90;;;;;;5031217;28;20632;-73
2022/01/25 01:56:40;;;;;;;5.70;1.53;;;27.00;57.60;;;;;;5032807;28;20631;-73
2022/01/25 01:59:11;;;;;;;9.67;1.87;;;27.10;56.90;;;;;;5032171;28;20181;-77
2022/01/25 02:01:42;;;;;;;10.50;2.07;;;26.40;58.40;;;;;;5032401;28;20514;-76
2022/01/25 02:04:11;;;;;;;4.30;1.40;;;27.00;58.40;;;;;;5031982;28;20634;-74
2022/01/25 02:06:38;;;;;;;7.67;1.80;;;27.30;56.60;;;;;;5032644;28;20188;-76
2022/01/25 02:09:08;;;;;;;6.73;1.50;;;27.70;55.30;;;;;;5031547;28;20212;-74
2022/01/25 02:11:36;;;;;;;8.87;1.77;;;27.60;54.30;;;;;;5031042;28;20238;-71
2022/01/25 02:14:09;;;;;;;6.37;1.70;;;27.40;55.50;;;;;;5031975;28;20246;-74
2022/01/25 02:24:52;;;;;;;9.97;1.70;;;27.30;55.80;;;;;;5032303;28;20220;-71
2022/01/25 02:27:20;;;;;;;7.40;2.00;;;27.40;55.30;;;;;;5032208;28;20197;-73
2022/01/25 02:29:47;;;;;;;7.50;1.60;;;27.30;55.70;;;;;;5029138;28;20208;-74
2022/01/25 02:32:15;;;;;;;6.73;1.80;;;27.40;56.30;;;;;;5029961;28;20184;-73
2022/01/25 02:34:43;;;;;;;6.80;1.73;;;27.30;55.20;;;;;;5032147;28;20545;-75
2022/01/25 02:37:13;;;;;;;10.97;1.77;;;27.30;55.60;;;;;;5029099;28;20211;-73
2022/01/25 02:39:48;;;;;;;10.33;1.70;;;27.00;57.00;;;;;;5031919;28;20690;-77
2022/01/25 02:42:17;;;;;;;9.23;1.93;;;26.80;57.20;;;;;;5030078;28;20183;-70
2022/01/25 02:44:45;;;;;;;13.57;1.80;;;27.00;56.90;;;;;;5031862;28;20230;-72
2022/01/25 02:49:58;;;;;;;10.53;1.83;;;27.60;54.90;;;;;;5031495;28;20200;-75
2022/01/25 02:52:27;;;;;;;6.07;1.90;;;27.60;54.80;;;;;;5031935;28;20180;-74
2022/01/25 02:54:55;;;;;;;9.70;1.63;;;27.60;55.40;;;;;;5030719;28;20204;-72
2022/01/25 02:57:26;;;;;;;10.67;1.87;;;27.60;55.20;;;;;;5032512;28;20211;-73
2022/01/25 02:59:53;;;;;;;8.13;1.87;;;28.00;54.40;;;;;;5032300;28;20181;-73
2022/01/25 03:02:20;;;;;;;8.27;2.10;;;28.30;53.40;;;;;;5033233;28;20655;-71
2022/01/25 03:04:48;;;;;;;8.77;2.30;;;28.50;53.10;;;;;;5034965;28;20212;-72
2022/01/25 03:07:15;;;;;;;5.30;2.03;;;28.40;53.20;;;;;;5032169;28;20256;-73
2022/01/25 03:09:43;;;;;;;7.43;1.87;;;28.30;53.90;;;;;;5026427;28;20219;-71
2022/01/25 03:12:14;;;;;;;7.03;2.00;;;28.80;52.50;;;;;;5031999;28;20666;-71
2022/01/25 03:14:59;;;;;;;8.03;1.93;;;28.60;52.40;;;;;;5031736;28;20188;-74
2022/01/25 03:17:30;;;;;;;12.80;2.30;;;28.90;52.30;;;;;;5029674;28;20642;-73
2022/01/25 03:20:07;;;;;;;11.53;2.13;;;29.20;51.30;;;;;;5031660;28;20242;-71
2022/01/25 03:22:58;;;;;;;8.47;1.90;;;29.20;50.70;;;;;;5035147;28;20693;-72
2022/01/25 03:25:22;;;;;;;5.70;1.60;;;28.40;52.20;;;;;;5030382;28;20216;-71
2022/01/25 03:27:50;;;;;;;6.33;1.67;;;28.20;53.20;;;;;;5035178;28;20266;-72
2022/01/25 03:30:18;;;;;;;8.00;2.00;;;27.90;53.60;;;;;;5034555;28;20185;-69
2022/01/25 03:32:46;;;;;;;7.90;1.77;;;27.80;54.10;;;;;;5034961;28;20230;-71
2022/01/25 03:35:14;;;;;;;8.20;1.63;;;27.60;54.50;;;;;;5028757;28;20647;-71
2022/01/25 03:37:41;;;;;;;9.00;1.97;;;27.80;54.00;;;;;;5034835;28;20280;-75
2022/01/25 03:40:09;;;;;;;6.90;1.50;;;27.80;54.00;;;;;;5035007;28;20232;-73
2022/01/25 03:42:38;;;;;;;8.33;1.80;;;27.90;54.20;;;;;;5034933;28;20181;-73
2022/01/25 03:45:07;;;;;;;7.53;1.67;;;27.90;54.30;;;;;;5034759;28;20221;-77
2022/01/25 03:47:46;;;;;;;7.87;1.70;;;27.90;54.60;;;;;;5034973;28;20543;-73
2022/01/25 03:50:14;;;;;;;7.37;1.77;;;27.60;54.90;;;;;;5028669;28;20196;-71
2022/01/25 03:52:41;;;;;;;6.00;1.97;;;27.70;55.20;;;;;;5034474;28;20508;-74
2022/01/25 03:55:09;;;;;;;6.30;1.83;;;27.90;55.10;;;;;;5034379;28;20184;-72
2022/01/25 03:57:36;;;;;;;6.77;1.53;;;28.30;54.00;;;;;;5034729;28;20689;-72
2022/01/25 04:00:07;;;;;;;8.47;2.17;;;28.20;53.70;;;;;;5034447;28;20219;-73
2022/01/25 04:02:36;;;;;;;6.93;1.57;;;27.80;53.90;;;;;;5034801;28;20192;-76
2022/01/25 04:05:05;;;;;;;7.13;1.70;;;27.90;53.80;;;;;;5033985;28;20238;-71
2022/01/25 04:07:44;;;;;;;13.27;2.27;;;27.60;54.50;;;;;;5034133;28;20319;-72
2022/01/25 04:10:17;;;;;;;7.57;2.27;;;28.00;53.90;;;;;;5028101;28;20180;-70
2022/01/25 04:12:47;;;;;;;7.10;1.97;;;28.10;53.40;;;;;;5031879;28;20268;-72
2022/01/25 04:15:15;;;;;;;4.83;1.30;;;28.40;52.20;;;;;;5027874;28;20215;-72
2022/01/25 04:17:44;;;;;;;6.30;1.70;;;28.90;51.40;;;;;;5034484;28;20189;-75
2022/01/25 04:20:26;;;;;;;5.70;1.33;;;28.80;51.50;;;;;;5034692;28;20249;-74
2022/01/25 04:25:38;;;;;;;5.07;1.60;;;28.80;51.10;;;;;;5034602;28;20844;-73
2022/01/25 04:28:06;;;;;;;10.30;1.73;;;28.40;51.70;;;;;;5034560;28;20618;-77
2022/01/25 04:30:34;;;;;;;5.90;1.80;;;27.60;53.90;;;;;;5033189;28;20560;-75
2022/01/25 04:33:06;;;;;;;6.17;1.73;;;27.70;54.00;;;;;;5032662;28;21475;-72
2022/01/25 04:49:17;;;;;;;9.17;1.93;;;29.50;50.20;;;;;;5031385;28;20681;-75
2022/01/25 04:51:50;;;;;;;12.07;1.92;;;29.20;49.70;;;;;;5030075;28;20184;-74
2022/01/25 04:54:48;;;;;;;9.98;2.17;;;29.00;50.70;;;;;;5033620;28;20639;-72
2022/01/25 05:02:17;;;;;;;8.02;2.00;;;29.80;49.00;;;;;;5033466;28;20188;-73
2022/01/25 05:04:51;;;;;;;10.07;1.90;;;29.60;48.90;;;;;;5027735;28;20232;-72
2022/01/25 05:07:35;;;;;;;5.65;1.50;;;29.40;49.40;;;;;;5031809;28;20575;-74
2022/01/25 05:10:04;;;;;;;6.78;1.60;;;29.60;48.70;;;;;;5029958;28;20200;-74
2022/01/25 05:12:40;;;;;;;8.82;1.42;;;29.30;49.70;;;;;;5031794;28;20713;-72
2022/01/25 05:17:58;;;;;;;7.47;1.70;;;28.30;52.00;;;;;;5031481;28;20501;-79
2022/01/25 05:23:11;;;;;;;6.80;1.67;;;28.70;51.30;;;;;;5031064;28;20261;-77
2022/01/25 05:25:39;;;;;;;5.88;1.42;;;29.40;49.00;;;;;;5031233;28;20240;-75
2022/01/25 05:28:06;;;;;;;9.10;1.70;;;29.60;48.80;;;;;;5034981;28;20199;-74
2022/01/25 05:30:34;;;;;;;7.88;1.50;;;29.30;48.70;;;;;;5035832;28;20192;-79
2022/01/25 05:33:01;;;;;;;9.23;1.92;;;29.30;49.80;;;;;;5032479;28;20180;-71
2022/01/25 05:35:29;;;;;;;6.50;1.60;;;29.30;49.70;;;;;;5033068;28;20192;-72
2022/01/25 05:37:56;;;;;;;4.53;1.55;;;29.40;48.90;;;;;;5034346;28;20544;-74
2022/01/25 05:40:46;;;;;;;12.45;2.10;;;29.80;47.70;;;;;;5031933;28;20228;-77
2022/01/25 05:46:12;;;;;;;7.95;1.50;;;29.80;48.10;;;;;;5033015;28;20655;-80
2022/01/25 05:48:40;;;;;;;16.15;4.18;;;30.00;47.50;;;;;;5027710;28;20227;-74
2022/01/25 05:51:08;;;;;;;5.97;2.13;;;29.60;49.70;;;;;;5028957;28;20180;-75
2022/01/25 05:53:36;;;;;;;5.18;2.40;;;28.70;50.50;;;;;;5033298;28;20615;-75
2022/01/25 05:56:05;;;;;;;5.47;1.35;;;29.30;49.10;;;;;;5031756;28;20192;-75
2022/01/25 05:58:32;;;;;;;3.92;1.15;;;28.90;50.20;;;;;;5035299;28;20528;-75
2022/01/25 06:00:59;;;;;;;5.65;1.08;;;28.90;50.10;;;;;;5034304;28;20192;-76
2022/01/25 06:03:27;;;;;;;6.32;1.52;;;29.30;49.00;;;;;;5026985;28;20530;-73
2022/01/25 06:05:54;;;;;;;5.30;1.17;;;28.30;51.10;;;;;;5031682;28;20192;-73
2022/01/25 06:08:21;;;;;;;7.80;1.43;;;27.80;52.60;;;;;;5033174;28;20172;-72
2022/01/25 06:10:50;;;;;;;6.47;1.40;;;27.70;53.20;;;;;;5034056;28;20192;-74
2022/01/25 06:13:18;;;;;;;7.30;1.70;;;27.10;54.70;;;;;;5036021;28;20177;-72
2022/01/25 06:15:45;;;;;;;11.00;1.70;;;27.20;55.20;;;;;;5030735;28;20235;-81
2022/01/25 06:18:12;;;;;;;7.15;1.70;;;28.30;52.10;;;;;;5032339;28;20187;-74
2022/01/25 06:20:40;;;;;;;8.60;1.70;;;28.80;51.10;;;;;;5035153;28;20183;-75
2022/01/25 06:23:07;;;;;;;8.13;2.07;;;28.90;49.70;;;;;;5029685;28;20295;-75
2022/01/25 06:25:35;;;;;;;4.55;1.27;;;29.30;49.20;;;;;;5024166;28;20319;-74
2022/01/25 06:28:02;;;;;;;7.35;1.55;;;28.80;49.80;;;;;;5031306;28;20203;-75
2022/01/25 06:30:30;;;;;;;4.97;1.70;;;29.00;49.50;;;;;;5032312;28;20253;-75
2022/01/25 06:32:59;;;;;;;5.43;1.77;;;28.40;50.50;;;;;;5033286;28;20311;-72
2022/01/25 06:35:31;;;;;;;6.30;1.70;;;27.70;52.50;;;;;;5030448;28;20663;-74
2022/01/25 06:38:00;;;;;;;5.67;1.77;;;28.00;51.80;;;;;;5031346;28;20191;-72
2022/01/25 06:40:28;;;;;;;9.10;1.77;;;28.60;50.20;;;;;;5032256;28;20246;-75
2022/01/25 06:42:58;;;;;;;6.35;1.60;;;28.50;50.30;;;;;;5032032;28;20259;-74
2022/01/25 06:45:27;;;;;;;7.70;2.22;;;28.70;49.90;;;;;;5030699;28;20857;-77
2022/01/25 06:47:55;;;;;;;7.60;1.67;;;28.10;52.10;;;;;;5031297;28;20181;-77
2022/01/25 06:50:24;;;;;;;5.73;1.80;;;28.00;51.60;;;;;;5030737;28;20275;-76
2022/01/25 06:52:52;;;;;;;7.37;1.20;;;28.00;52.20;;;;;;5031702;28;20211;-74
2022/01/25 06:55:20;;;;;;;7.87;1.80;;;27.50;52.80;;;;;;5030474;28;20173;-73
2022/01/25 06:57:48;;;;;;;7.10;1.63;;;27.60;52.90;;;;;;5035591;28;20181;-73
2022/01/25 07:00:22;;;;;;;4.40;1.60;;;27.90;52.20;;;;;;5028682;28;20207;-73
2022/01/25 07:02:50;;;;;;;5.67;1.63;;;27.70;52.20;;;;;;5033870;28;20260;-77
2022/01/25 07:05:17;;;;;;;6.23;1.40;;;28.20;51.60;;;;;;5031828;28;20216;-76
2022/01/25 07:07:46;;;;;;;7.90;1.65;;;28.90;49.80;;;;;;5036972;28;20185;-73
2022/01/25 07:10:14;;;;;;;8.07;2.40;;;28.40;51.00;;;;;;5035274;28;20187;-79
2022/01/25 07:12:41;;;;;;;7.57;1.57;;;28.50;50.70;;;;;;5034111;28;20229;-71
2022/01/25 07:15:09;;;;;;;7.07;1.48;;;28.30;51.30;;;;;;5035621;28;20687;-76
2022/01/25 07:17:37;;;;;;;8.40;1.40;;;28.30;51.00;;;;;;5031280;28;20327;-73
2022/01/25 07:20:06;;;;;;;5.93;1.50;;;28.00;51.70;;;;;;5033453;28;20562;-72
2022/01/25 07:22:38;;;;;;;7.37;1.63;;;28.00;51.70;;;;;;5035873;28;20234;-73
2022/01/25 07:25:09;;;;;;;8.10;1.83;;;28.10;51.30;;;;;;5035206;28;20212;-75
2022/01/25 07:27:36;;;;;;;10.87;1.50;;;28.20;51.10;;;;;;5037543;28;20184;-72
2022/01/25 07:30:06;;;;;;;7.72;1.70;;;28.20;51.10;;;;;;5036867;28;21992;-73
2022/01/25 07:32:34;;;;;;;7.37;1.80;;;27.70;52.00;;;;;;5037174;28;20180;-74
2022/01/25 07:35:02;;;;;;;6.30;1.87;;;26.80;54.40;;;;;;5034032;28;20249;-73
2022/01/25 07:37:32;;;;;;;8.73;1.43;;;26.30;56.20;;;;;;5035974;28;20666;-73
2022/01/25 07:40:00;;;;;;;7.80;1.97;;;25.90;57.40;;;;;;5035100;28;20370;-72
2022/01/25 07:42:29;;;;;;;7.43;1.80;;;25.60;58.40;;;;;;5034812;28;20184;-73
2022/01/25 07:44:56;;;;;;;10.93;2.20;;;25.60;59.20;;;;;;5042322;28;20204;-72
2022/01/25 07:47:24;;;;;;;6.40;2.00;;;25.30;59.80;;;;;;5041474;28;20690;-76
2022/01/25 07:49:51;;;;;;;6.33;1.67;;;25.10;60.20;;;;;;5036746;28;20172;-71
2022/01/25 07:52:19;;;;;;;3.70;1.50;;;25.10;60.30;;;;;;5035328;28;20587;-74
2022/01/25 07:54:46;;;;;;;7.27;1.40;;;24.80;60.40;;;;;;5035549;28;20196;-73
2022/01/25 07:57:13;;;;;;;7.97;1.53;;;24.80;60.50;;;;;;5036154;28;20180;-71
2022/01/25 07:59:41;;;;;;;8.53;1.77;;;24.70;61.30;;;;;;5039173;28;20175;-72
2022/01/25 08:02:15;;;;;;;6.57;1.40;;;24.60;61.60;;;;;;5034639;28;20651;-71
2022/01/25 08:04:43;;;;;;;5.90;2.00;;;24.70;61.60;;;;;;5033536;28;20207;-71
2022/01/25 08:07:10;;;;;;;7.23;1.47;;;24.50;62.30;;;;;;5032929;28;20259;-72
2022/01/25 08:09:38;;;;;;;7.00;1.90;;;24.30;62.90;;;;;;5034530;28;20238;-74
2022/01/25 08:12:06;;;;;;;5.37;1.47;;;24.30;63.00;;;;;;5029048;28;20188;-71
2022/01/25 08:14:33;;;;;;;9.63;1.70;;;24.20;63.30;;;;;;5029766;28;20200;-71
2022/01/25 08:17:01;;;;;;;5.70;1.60;;;24.00;63.90;;;;;;5031732;28;20177;-75
2022/01/25 08:19:28;;;;;;;7.27;2.10;;;24.10;63.50;;;;;;5034816;28;20238;-71
2022/01/25 08:21:55;;;;;;;11.30;1.80;;;24.20;63.60;;;;;;5032145;28;20267;-72
2022/01/25 08:24:29;;;;;;;6.57;1.90;;;24.10;63.00;;;;;;5031117;28;20706;-74
2022/01/25 08:26:57;;;;;;;5.73;1.70;;;24.10;62.70;;;;;;5033949;28;20180;-73
2022/01/25 08:29:24;;;;;;;5.83;1.60;;;24.20;62.70;;;;;;5032141;28;21206;-71
2022/01/25 08:31:52;;;;;;;4.03;1.30;;;24.00;62.90;;;;;;5034334;28;20191;-74
2022/01/25 08:34:19;;;;;;;9.03;1.57;;;24.00;63.40;;;;;;5033852;28;20179;-73
2022/01/25 08:36:47;;;;;;;8.47;1.80;;;24.00;63.20;;;;;;5041183;28;20551;-75
2022/01/25 08:39:15;;;;;;;9.60;1.50;;;23.90;63.80;;;;;;5036366;28;20217;-74
2022/01/25 08:41:44;;;;;;;4.90;1.90;;;24.00;63.90;;;;;;5031019;28;20181;-73
2022/01/25 08:44:12;;;;;;;9.40;3.30;;;24.00;63.80;;;;;;5034807;28;20196;-74
2022/01/25 08:46:39;;;;;;;8.57;2.50;;;24.00;63.90;;;;;;5034109;28;20263;-73
2022/01/25 08:49:07;;;;;;;7.83;1.80;;;24.00;64.10;;;;;;5029659;28;20227;-74
2022/01/25 08:51:34;;;;;;;3.77;1.80;;;24.00;64.10;;;;;;5032713;28;20226;-74
2022/01/25 08:54:02;;;;;;;2.90;1.20;;;24.00;63.50;;;;;;5052599;28;20223;-75
2022/01/25 08:56:29;;;;;;;4.50;1.33;;;23.80;63.70;;;;;;5041778;28;20195;-75
2022/01/25 08:58:57;;;;;;;8.90;2.17;;;23.80;64.10;;;;;;5034309;28;20181;-76
2022/01/25 09:01:25;;;;;;;7.57;2.10;;;23.80;64.50;;;;;;5033503;28;20658;-75
2022/01/25 09:03:54;;;;;;;5.60;1.40;;;23.80;64.40;;;;;;5032771;28;20254;-75
2022/01/25 09:06:28;;;;;;;7.87;1.50;;;23.80;64.50;;;;;;5034271;28;20640;-75
2022/01/25 09:09:07;;;;;;;39.83;14.07;;;23.80;64.90;;;;;;5031604;28;20183;-73
2022/01/25 09:11:36;;;;;;;16.27;5.97;;;23.70;64.70;;;;;;5033565;28;20658;-74
2022/01/25 09:14:05;;;;;;;6.70;2.30;;;23.70;65.10;;;;;;5036256;28;20200;-76
2022/01/25 09:16:33;;;;;;;6.73;1.27;;;23.60;65.30;;;;;;5034366;28;20640;-75
2022/01/25 09:19:01;;;;;;;5.50;1.40;;;23.60;65.40;;;;;;5038158;28;20184;-72
2022/01/25 09:21:28;;;;;;;6.40;1.60;;;23.60;65.20;;;;;;5033819;28;20187;-74
2022/01/25 09:23:56;;;;;;;5.23;1.37;;;23.60;65.40;;;;;;5035689;28;20768;-76
2022/01/25 09:26:24;;;;;;;6.70;1.47;;;23.60;65.90;;;;;;5034687;28;20271;-77
2022/01/25 09:28:54;;;;;;;7.30;1.67;;;23.60;66.10;;;;;;5031880;28;20180;-74
2022/01/25 09:31:23;;;;;;;6.57;1.37;;;23.50;66.10;;;;;;5047203;28;20177;-74
2022/01/25 09:33:51;;;;;;;7.93;1.73;;;23.40;66.40;;;;;;5032467;28;20184;-74
2022/01/25 09:36:19;;;;;;;5.67;1.60;;;23.40;66.80;;;;;;5032900;28;20188;-74
2022/01/25 09:38:46;;;;;;;5.90;1.30;;;23.40;67.00;;;;;;5038132;28;20184;-76
2022/01/25 09:41:14;;;;;;;7.43;1.53;;;23.30;66.90;;;;;;5032201;28;20282;-74
2022/01/25 09:43:41;;;;;;;13.93;2.33;;;23.30;67.20;;;;;;5032241;28;20201;-74
2022/01/25 09:46:09;;;;;;;13.00;2.23;;;23.20;67.70;;;;;;5030777;28;20246;-73
2022/01/25 09:48:36;;;;;;;8.73;1.70;;;23.20;67.70;;;;;;5032104;28;20180;-73
2022/01/25 09:51:06;;;;;;;8.53;1.40;;;23.10;68.10;;;;;;5032138;28;20259;-76
2022/01/25 09:53:33;;;;;;;9.57;1.63;;;23.10;68.30;;;;;;5028925;28;20183;-72
2022/01/25 09:56:01;;;;;;;5.00;1.67;;;23.10;68.40;;;;;;5033218;28;20191;-76
2022/01/25 09:58:29;;;;;;;8.23;1.70;;;23.10;68.70;;;;;;5031495;28;20632;-75
2022/01/25 10:01:01;;;;;;;7.40;1.70;;;23.10;69.00;;;;;;5034008;28;20235;-75
2022/01/25 10:03:38;;;;;;;7.90;1.50;;;23.10;69.00;;;;;;5032364;28;20184;-75
2022/01/25 10:06:17;;;;;;;5.23;1.70;;;23.10;68.90;;;;;;5032146;28;20227;-75
2022/01/25 10:08:45;;;;;;;6.40;2.03;;;23.10;68.80;;;;;;5029803;28;20234;-73
2022/01/25 10:11:15;;;;;;;6.50;1.23;;;23.10;68.70;;;;;;5031917;28;20215;-75
2022/01/25 10:13:45;;;;;;;7.00;1.93;;;23.10;68.30;;;;;;5031031;28;20191;-75
2022/01/25 10:16:21;;;;;;;7.30;2.00;;;23.10;68.40;;;;;;5026349;28;20184;-74
2022/01/25 10:18:51;;;;;;;4.60;1.80;;;23.10;68.60;;;;;;5032281;28;20180;-75
2022/01/25 10:21:24;;;;;;;8.60;1.90;;;23.10;68.70;;;;;;5030573;28;20196;-76
2022/01/25 10:24:01;;;;;;;9.63;1.70;;;23.00;68.90;;;;;;5034191;28;20204;-76
2022/01/25 10:26:38;;;;;;;9.63;1.70;;;23.00;68.70;;;;;;5047303;28;20242;-76
2022/01/25 10:29:08;;;;;;;5.70;1.50;;;23.00;69.00;;;;;;5029073;28;20183;-76
2022/01/25 10:31:42;;;;;;;8.30;1.83;;;23.00;68.80;;;;;;5031017;28;20176;-75
2022/01/25 10:34:11;;;;;;;6.77;2.10;;;22.90;69.00;;;;;;5039242;28;20169;-75
2022/01/25 10:36:45;;;;;;;9.00;1.47;;;22.90;69.40;;;;;;5032828;28;20224;-74
2022/01/25 10:39:19;;;;;;;6.43;1.50;;;22.90;69.20;;;;;;5025626;28;20228;-75
2022/01/25 10:41:46;;;;;;;6.50;1.50;;;23.00;69.30;;;;;;5032727;28;20263;-73
2022/01/25 10:44:14;;;;;;;7.20;2.00;;;22.90;69.30;;;;;;5039100;28;20200;-76
2022/01/25 10:46:41;;;;;;;12.43;1.87;;;22.90;69.20;;;;;;5032205;28;20237;-76
2022/01/25 10:49:15;;;;;;;7.70;1.93;;;22.80;69.30;;;;;;5039458;28;20674;-75
2022/01/25 10:51:45;;;;;;;8.80;1.73;;;22.80;69.40;;;;;;5042828;28;20575;-70
2022/01/25 10:54:20;;;;;;;5.60;1.60;;;22.80;69.30;;;;;;5036715;28;20172;-74
2022/01/25 10:56:50;;;;;;;10.17;1.50;;;22.80;69.40;;;;;;5029561;28;20176;-74
2022/01/25 10:59:28;;;;;;;6.17;2.00;;;22.80;69.20;;;;;;5033692;28;20635;-74
2022/01/25 11:02:02;;;;;;;5.13;1.97;;;22.80;69.30;;;;;;5034773;28;20188;-74
2022/01/25 11:04:36;;;;;;;10.17;2.00;;;22.80;69.40;;;;;;5030375;28;20216;-72
2022/01/25 11:07:06;;;;;;;7.83;1.50;;;22.80;69.60;;;;;;5034933;28;20643;-73
2022/01/25 11:09:41;;;;;;;5.70;1.60;;;22.80;69.30;;;;;;5031316;28;20651;-74
2022/01/25 11:12:13;;;;;;;7.93;2.20;;;22.80;69.10;;;;;;5029333;28;20177;-73
2022/01/25 11:14:50;;;;;;;10.00;2.77;;;22.80;69.30;;;;;;5031373;28;20192;-73
2022/01/25 11:17:20;;;;;;;8.57;1.77;;;22.80;69.30;;;;;;5036719;28;20173;-75
2022/01/25 11:19:47;;;;;;;5.77;1.93;;;22.80;69.30;;;;;;5052868;28;20185;-75
2022/01/25 11:22:20;;;;;;;6.47;1.40;;;22.80;69.10;;;;;;5031911;28;20185;-73
2022/01/25 11:24:59;;;;;;;4.63;1.43;;;22.80;69.30;;;;;;5047029;28;20216;-76
2022/01/25 11:27:29;;;;;;;6.73;2.00;;;22.80;69.60;;;;;;5031630;28;20188;-78
2022/01/25 11:30:00;;;;;;;9.00;2.13;;;22.80;69.60;;;;;;5031425;28;20180;-77
2022/01/25 11:32:34;;;;;;;6.83;1.60;;;22.80;69.70;;;;;;5027016;28;20194;-79
2022/01/25 11:35:06;;;;;;;8.57;1.47;;;22.80;69.70;;;;;;5034734;28;20188;-76
2022/01/25 11:37:40;;;;;;;7.83;1.43;;;22.80;69.60;;;;;;5032658;28;20655;-75
2022/01/25 11:40:30;;;;;;;6.93;1.80;;;22.80;69.80;;;;;;5031455;28;20223;-77
2022/01/25 11:43:00;;;;;;;7.00;1.43;;;22.80;70.10;;;;;;5035204;28;20272;-77
2022/01/25 11:45:48;;;;;;;7.27;2.27;;;22.80;70.30;;;;;;5036365;28;20219;-77
2022/01/25 11:48:25;;;;;;;5.13;1.50;;;22.80;70.30;;;;;;5034260;28;20185;-78
2022/01/25 11:50:52;;;;;;;9.80;1.90;;;22.80;70.10;;;;;;5039607;28;20175;-77
2022/01/25 11:53:23;;;;;;;8.50;1.83;;;22.80;69.90;;;;;;5034066;28;20187;-78
2022/01/25 11:55:54;;;;;;;5.53;1.60;;;22.80;69.80;;;;;;5049133;28;20176;-76
2022/01/25 11:58:30;;;;;;;9.43;2.03;;;22.80;69.90;;;;;;5032688;28;20184;-76
2022/01/25 12:01:03;;;;;;;9.53;1.90;;;22.90;70.10;;;;;;5034377;28;20192;-76
2022/01/25 12:03:44;;;;;;;6.67;1.70;;;22.80;69.90;;;;;;5033844;28;20191;-78
2022/01/25 12:06:21;;;;;;;13.07;2.27;;;22.80;69.90;;;;;;5035208;28;20199;-75
2022/01/25 12:11:31;;;;;;;8.60;1.93;;;22.80;70.40;;;;;;5034288;28;20217;-75
2022/01/25 12:14:26;;;;;;;8.23;2.03;;;22.80;70.70;;;;;;5033337;28;20183;-75
2022/01/25 12:17:02;;;;;;;6.20;2.03;;;22.80;71.10;;;;;;5028295;28;20177;-77
2022/01/25 12:19:50;;;;;;;8.90;1.67;;;22.80;71.20;;;;;;5047327;28;20585;-76
2022/01/25 12:22:35;;;;;;;8.93;2.00;;;22.80;71.20;;;;;;5032909;28;20551;-76
2022/01/25 12:25:07;;;;;;;10.47;2.10;;;22.70;71.10;;;;;;5035919;28;20207;-73
2022/01/25 12:27:42;;;;;;;9.77;1.70;;;22.70;71.10;;;;;;5037408;28;20242;-74
2022/01/25 12:30:13;;;;;;;8.80;1.70;;;22.60;71.00;;;;;;5035683;28;20184;-73
2022/01/25 12:33:08;;;;;;;9.37;1.90;;;22.60;70.80;;;;;;5032406;28;20179;-75
2022/01/25 12:35:48;;;;;;;11.00;2.43;;;22.70;70.70;;;;;;5049232;28;20188;-74
2022/01/25 12:38:22;;;;;;;8.03;2.03;;;22.70;70.70;;;;;;5031134;28;20673;-74
2022/01/25 12:40:52;;;;;;;11.57;1.73;;;22.70;70.80;;;;;;5033762;28;20610;-75
2022/01/25 12:43:24;;;;;;;7.57;2.10;;;22.70;71.00;;;;;;5033680;28;20181;-74
2022/01/25 12:46:00;;;;;;;10.30;2.07;;;22.70;70.90;;;;;;5032507;28;20691;-74
2022/01/25 12:48:34;;;;;;;7.40;1.50;;;22.60;70.90;;;;;;5033518;28;20176;-74
2022/01/25 12:51:06;;;;;;;5.77;1.30;;;22.60;70.90;;;;;;5033487;28;20643;-74
2022/01/25 12:53:36;;;;;;;8.97;1.50;;;22.60;71.20;;;;;;5032402;28;20172;-74
2022/01/25 12:56:16;;;;;;;10.53;2.40;;;22.50;71.30;;;;;;5033435;28;20247;-74
2022/01/25 12:58:45;;;;;;;7.90;1.70;;;22.50;71.50;;;;;;5032840;28;20462;-75
2022/01/25 13:01:15;;;;;;;6.83;1.83;;;22.50;71.80;;;;;;5048686;28;20184;-75
2022/01/25 13:03:45;;;;;;;11.67;2.20;;;22.50;71.60;;;;;;5032044;28;20177;-75
2022/01/25 13:06:14;;;;;;;6.10;1.37;;;22.50;71.50;;;;;;5033195;28;20184;-77
2022/01/25 13:08:53;;;;;;;7.00;1.70;;;22.50;71.50;;;;;;5033155;28;20271;-75
2022/01/25 13:11:27;;;;;;;7.03;1.87;;;22.40;71.30;;;;;;5033348;28;20181;-76
2022/01/25 13:14:04;;;;;;;13.10;2.67;;;22.50;71.20;;;;;;5032365;28;20231;-76
2022/01/25 13:16:47;;;;;;;4.97;1.70;;;22.50;71.30;;;;;;5033367;28;20180;-75
2022/01/25 13:19:19;;;;;;;8.67;1.90;;;22.40;71.30;;;;;;5033131;28;20250;-75
2022/01/25 13:21:53;;;;;;;8.23;1.70;;;22.50;71.40;;;;;;5032704;28;20212;-75
2022/01/25 13:24:23;;;;;;;9.47;1.60;;;22.50;71.50;;;;;;5042966;28;20250;-78
2022/01/25 13:27:03;;;;;;;10.13;1.60;;;22.50;71.30;;;;;;5032035;28;20187;-77
2022/01/25 13:32:28;;;;;;;9.70;1.60;;;22.50;71.60;;;;;;5030902;28;20564;-76
2022/01/25 13:35:29;;;;;;;5.70;1.83;;;22.60;71.40;;;;;;5032121;28;20655;-75
2022/01/25 13:38:11;;;;;;;6.20;2.10;;;22.70;71.20;;;;;;5024863;28;20234;-75
2022/01/25 13:46:18;;;;;;;5.13;1.63;;;22.80;71.30;;;;;;5027313;28;20198;-76
2022/01/25 13:48:46;;;;;;;6.97;1.90;;;22.80;71.20;;;;;;5031426;28;20172;-76
2022/01/25 13:51:19;;;;;;;6.17;1.83;;;22.70;71.30;;;;;;5032375;28;20180;-76
2022/01/25 13:53:58;;;;;;;8.67;1.90;;;22.80;71.30;;;;;;5034293;28;20173;-76
2022/01/25 13:56:29;;;;;;;8.57;1.77;;;22.80;71.20;;;;;;5035162;28;20603;-75
2022/01/25 13:58:57;;;;;;;7.50;2.20;;;22.80;71.60;;;;;;5046682;28;20182;-75
2022/01/25 14:01:27;;;;;;;8.90;1.63;;;22.80;71.70;;;;;;5033738;28;20250;-76
2022/01/25 14:04:07;;;;;;;9.70;2.03;;;22.80;71.60;;;;;;5031773;28;20208;-75
2022/01/25 14:06:39;;;;;;;6.93;1.80;;;22.80;71.80;;;;;;5032750;28;20192;-76
2022/01/25 14:09:16;;;;;;;6.60;1.70;;;22.70;72.00;;;;;;5029553;28;20172;-75
2022/01/25 14:22:52;;;;;;;6.30;1.50;;;22.80;71.40;;;;;;5024279;28;20224;-75
2022/01/25 14:25:40;;;;;;;10.83;2.07;;;22.80;71.60;;;;;;5018635;28;20286;-74
2022/01/25 14:28:21;;;;;;;3.07;1.50;;;22.70;71.60;;;;;;5027129;28;20184;-77
2022/01/25 14:30:52;;;;;;;10.57;2.10;;;22.60;71.90;;;;;;5024650;28;20548;-76
2022/01/25 14:33:25;;;;;;;7.17;1.77;;;22.60;72.20;;;;;;5031422;28;20651;-76
2022/01/25 14:36:00;;;;;;;7.43;1.80;;;22.50;72.40;;;;;;5032076;28;20639;-76
2022/01/25 14:38:33;;;;;;;11.40;2.00;;;22.60;72.30;;;;;;5031743;28;20184;-76
2022/01/25 14:41:04;;;;;;;8.60;1.90;;;22.40;72.50;;;;;;5031789;28;20319;-76
2022/01/25 14:43:50;;;;;;;15.70;2.03;;;22.40;72.50;;;;;;5031739;28;20181;-76
2022/01/25 14:46:28;;;;;;;6.37;1.40;;;22.40;73.10;;;;;;5035562;28;20331;-76
2022/01/25 14:49:12;;;;;;;4.27;1.90;;;22.30;73.10;;;;;;5030915;28;20179;-76
2022/01/25 14:51:40;;;;;;;9.00;1.83;;;22.30;73.30;;;;;;5031840;28;20193;-76
2022/01/25 14:54:10;;;;;;;9.20;2.13;;;22.30;73.60;;;;;;5031901;28;20267;-76
2022/01/25 14:56:47;;;;;;;5.10;1.57;;;22.30;73.50;;;;;;5031995;28;20189;-77
2022/01/25 14:59:24;;;;;;;7.00;1.80;;;22.30;73.90;;;;;;5031721;28;20180;-76
2022/01/25 15:02:13;;;;;;;8.60;1.50;;;22.30;74.00;;;;;;5031609;28;20208;-77
2022/01/25 15:04:46;;;;;;;9.43;1.60;;;22.30;73.90;;;;;;5023908;28;20209;-76
2022/01/25 15:07:20;;;;;;;4.93;1.43;;;22.30;73.80;;;;;;5030896;28;20235;-76
2022/01/25 15:09:55;;;;;;;13.83;1.90;;;22.30;73.70;;;;;;5032010;28;20207;-76
2022/01/25 15:12:28;;;;;;;6.40;1.60;;;22.30;73.70;;;;;;5028527;28;20187;-76